Latest Weather Observations for Wyndham Airport

IDW60801

Issued at 1:33 pm WST Thursday 1 September 2016 (issued every 30 minutes, with the page automatically refreshed every 10 minutes)

About weather observations | Map of weather stations | Latest weather observations for WA | Other Formats
Station Details ID: 001006 Name: WYNDHAM AERO Lat: -15.51 Lon: 128.15 Height: 3.8 m
Data from the previous 72 hours. | See also: Recent months at Wyndham Airport
Date/Time
WST
Temp
°C
App
Temp
°C
Dew
Point
°C
Rel
Hum
%
Delta-T
°C
Wind Press
QNH
hPa
Press
MSL
hPa
Rain since
9am
mm
Dir  Spd
km/h
Gust
km/h
Spd
kts
Gust
kts
01/01:30pm 35.6 35.6 17.3 33 11.8 WNW 13 19 7 10 1007.8 1007.8 0.0
01/01:00pm 36.2 36.1 16.9 32 12.4 WNW 13 24 7 13 1008.4 1008.4 0.0
01/12:30pm 35.5 35.0 16.8 33 12.0 WNW 15 26 8 14 1009.1 1009.1 0.0
01/12:00pm 35.8 36.5 17.0 32 12.1 SW 9 20 5 11 1009.6 1009.6 0.0
01/11:30am 34.7 35.8 16.5 33 11.6 SW 6 17 3 9 1010.3 1010.3 0.0
01/11:00am 34.3 35.0 17.1 36 11.0 SSE 9 15 5 8 1011.0 1011.0 0.0
01/10:30am 32.5 33.8 17.2 40 9.7 SSW 6 13 3 7 1011.8 1011.8 0.0
01/10:00am 33.2 32.7 17.8 40 9.9 SW 17 22 9 12 1012.4 1012.4 0.0
01/09:30am 32.9 30.9 17.5 39 9.9 SW 24 32 13 17 1012.8 1012.8 0.0
01/09:00am 32.9 31.1 18.7 43 9.3 WSW 26 33 14 18 1012.9 1012.9 0.0
01/08:30am 31.2 29.3 18.5 46 8.2 WSW 26 33 14 18 1012.9 1012.9 0.0
01/08:00am 30.6 30.1 19.9 52 7.0 WSW 22 30 12 16 1012.8 1012.8 0.0
01/07:30am 29.6 28.9 20.2 57 6.2 WSW 24 30 13 16 1012.6 1012.6 0.0
01/07:00am 29.0 28.4 20.4 59 5.7 WSW 24 30 13 16 1012.5 1012.5 0.0
01/06:30am 28.5 28.7 20.5 62 5.3 W 20 30 11 16 1012.3 1012.3 0.0
01/06:00am 27.9 29.3 21.0 66 4.6 W 15 17 8 9 1012.1 1012.1 0.0
01/05:30am 27.3 28.6 20.9 68 4.2 W 15 17 8 9 1011.9 1011.9 0.0
01/05:00am 27.2 28.8 20.8 68 4.2 W 13 17 7 9 1011.6 1011.6 0.0
01/04:30am 27.3 28.5 20.6 67 4.4 W 15 19 8 10 1011.4 1011.4 0.0
01/04:00am 27.5 29.1 20.8 67 4.4 W 13 20 7 11 1011.2 1011.2 0.0
01/03:30am 26.9 28.3 20.3 67 4.3 WNW 13 15 7 8 1011.0 1011.0 0.0
01/03:00am 27.0 28.4 20.3 66 4.4 NW 13 17 7 9 1011.1 1011.1 0.0
01/02:30am 27.4 28.7 20.2 65 4.7 W 13 15 7 8 1011.3 1011.3 0.0
01/02:00am 27.4 28.9 20.5 66 4.5 W 13 15 7 8 1011.5 1011.5 0.0
01/01:30am 27.7 29.2 20.5 65 4.7 W 13 15 7 8 1011.8 1011.8 0.0
01/01:00am 27.9 29.6 20.2 63 5.0 W 11 13 6 7 1012.2 1012.2 0.0
01/12:30am 27.8 29.0 19.8 61 5.2 W 13 15 7 8 1012.5 1012.5 0.0
01/12:00am 27.2 29.3 19.3 62 5.1 NW 7 9 4 5 1012.8 1012.8 0.0
 
Date/Time
WST
Temp
°C
App
Temp
°C
Dew
Point
°C
Rel
Hum
%
Delta-T
°C
Wind Press
QNH
hPa
Press
MSL
hPa
Rain since
9am
mm
Dir  Spd
km/h
Gust
km/h
Spd
kts
Gust
kts
31/11:30pm 27.5 28.8 19.3 61 5.3 WNW 11 11 6 6 1013.2 1013.2 0.0
31/11:00pm 28.0 29.8 19.5 60 5.5 WNW 9 13 5 7 1013.4 1013.4 0.0
31/10:30pm 28.0 29.5 19.8 61 5.3 NW 11 13 6 7 1013.6 1013.6 0.0
31/10:00pm 28.7 29.5 19.9 59 5.8 WNW 15 19 8 10 1013.6 1013.6 0.0
31/09:30pm 28.2 29.8 20.0 61 5.4 N 11 13 6 7 1013.6 1013.6 0.0
31/09:00pm 28.6 29.9 20.1 60 5.6 NNW 13 17 7 9 1013.5 1013.5 0.0
31/08:30pm 28.9 29.5 19.5 57 6.1 NNW 15 19 8 10 1013.2 1013.2 0.0
31/08:00pm 29.3 29.3 19.0 53 6.7 N 17 24 9 13 1012.7 1012.7 0.0
31/07:30pm 29.1 28.8 19.1 54 6.5 N 19 26 10 14 1012.7 1012.7 0.0
31/07:00pm 29.1 28.8 19.1 54 6.5 N 19 24 10 13 1012.5 1012.5 0.0
31/06:30pm 29.9 29.9 19.0 52 7.1 N 17 22 9 12 1012.3 1012.3 0.0
31/06:00pm 30.7 31.1 18.1 47 8.1 N 13 20 7 11 1011.8 1011.8 0.0
31/05:30pm 31.2 30.6 18.5 46 8.2 N 19 26 10 14 1011.5 1011.5 0.0
31/05:00pm 31.9 31.3 18.8 45 8.5 N 20 24 11 13 1011.2 1011.2 0.0
31/04:30pm 32.9 32.8 18.7 43 9.2 N 17 24 9 13 1011.1 1011.1 0.0
31/04:00pm 33.7 32.8 17.8 38 10.3 NNE 19 26 10 14 1011.0 1011.0 0.0
31/03:30pm 33.9 33.7 18.4 40 10.1 NNE 17 26 9 14 1010.8 1010.8 0.0
31/03:00pm 33.6 33.4 17.7 38 10.2 NNE 15 22 8 12 1010.9 1010.9 0.0
31/02:30pm 33.8 33.3 17.9 38 10.3 N 17 26 9 14 1011.1 1011.1 0.0
31/02:00pm 34.1 33.7 19.0 41 9.9 NNW 19 30 10 16 1011.5 1011.5 0.0
31/01:30pm 33.8 33.8 17.1 37 10.7 NNE 13 20 7 11 1011.8 1011.8 0.0
31/01:00pm 33.4 33.0 17.1 37 10.4 N 15 24 8 13 1012.3 1012.3 0.0
31/12:30pm 33.7 33.6 17.8 38 10.3 N 15 24 8 13 1012.8 1012.8 0.0
31/12:00pm 34.3 34.6 17.9 37 10.6 NNE 13 24 7 13 1013.2 1013.2 0.0
31/11:30am 32.6 34.6 18.8 44 9.0 WSW 6 9 3 5 1013.8 1013.8 0.0
31/11:00am 31.8 33.5 18.4 45 8.7 N 7 13 4 7 1014.4 1014.4 0.0
31/10:30am 31.9 32.7 18.1 43 8.9 NNE 11 17 6 9 1015.0 1015.0 0.0
31/10:00am 31.1 32.7 19.1 48 7.8 NNW 9 15 5 8 1015.4 1015.4 0.0
31/09:30am 32.4 34.1 19.3 46 8.6 ENE 9 17 5 9 1015.6 1015.6 0.0
31/09:00am 31.6 33.6 19.9 50 7.7 NE 9 17 5 9 1015.9 1015.9 0.0
31/08:30am 30.8 31.8 19.5 51 7.4 ENE 13 19 7 10 1016.0 1016.0 0.0
31/08:00am 30.1 31.3 19.8 54 6.8 ESE 13 20 7 11 1015.9 1015.9 0.0
31/07:30am 29.4 30.9 19.7 56 6.3 ESE 11 17 6 9 1015.6 1015.6 0.0
31/07:00am 28.9 30.1 19.8 58 5.9 ESE 13 19 7 10 1015.3 1015.3 0.0
31/06:30am 27.7 30.4 20.3 64 4.9 SSE 6 7 3 4 1015.1 1015.1 0.0
31/06:00am 26.9 29.1 20.3 67 4.3 SSE 9 11 5 6 1014.8 1014.8 0.0
31/05:30am 26.3 28.8 20.2 69 4.0 SSE 7 9 4 5 1014.5 1014.5 0.0
31/05:00am 26.4 30.1 20.0 68 4.2 CALM 0 0 0 0 1014.2 1014.2 0.0
31/04:30am 26.5 29.0 20.3 68 4.1 E 7 7 4 4 1013.8 1013.8 0.0
31/04:00am 26.5 28.9 20.1 68 4.2 ESE 7 7 4 4 1013.6 1013.6 0.0
31/03:30am 26.4 30.0 19.8 67 4.3 CALM 0 0 0 0 1013.3 1013.3 0.0
31/03:00am 26.6 30.2 19.7 66 4.5 CALM 0 0 0 0 1013.3 1013.3 0.0
31/02:30am 27.2 31.3 20.8 68 4.2 CALM 0 0 0 0 1013.2 1013.2 0.0
31/02:00am 27.4 31.6 21.0 68 4.2 CALM 0 0 0 0 1013.3 1013.3 0.0
31/01:30am 27.2 31.3 20.8 68 4.2 CALM 0 0 0 0 1013.5 1013.5 0.0
31/01:00am 27.1 31.2 20.7 68 4.2 CALM 0 0 0 0 1013.6 1013.6 0.0
31/12:30am 27.7 31.7 21.3 68 4.3 WNW 2 6 1 3 1013.6 1013.6 0.0
31/12:00am 27.8 30.7 21.1 67 4.4 W 7 9 4 5 1013.7 1013.7 0.0
 
Date/Time
WST
Temp
°C
App
Temp
°C
Dew
Point
°C
Rel
Hum
%
Delta-T
°C
Wind Press
QNH
hPa
Press
MSL
hPa
Rain since
9am
mm
Dir  Spd
km/h
Gust
km/h
Spd
kts
Gust
kts
30/11:30pm 27.8 30.3 21.1 67 4.4 WSW 9 13 5 7 1013.8 1013.8 0.0
30/11:00pm 28.1 30.0 20.6 63 4.9 W 11 11 6 6 1014.1 1014.1 0.0
30/10:30pm 28.1 30.4 20.6 63 4.9 NW 9 13 5 7 1014.1 1014.1 0.0
30/10:00pm 27.7 31.0 20.8 66 4.6 NNW 4 7 2 4 1014.1 1014.1 0.0
30/09:30pm 27.9 30.5 20.5 64 4.9 NW 7 11 4 6 1014.2 1014.2 0.0
30/09:00pm 28.0 30.4 20.8 65 4.8 NNW 9 15 5 8 1014.2 1014.2 0.0
30/08:30pm 28.1 30.9 20.4 63 5.1 WNW 6 13 3 7 1014.2 1014.2 0.0
30/08:00pm 28.1 29.5 20.4 63 5.1 NNW 13 19 7 10 1014.0 1014.0 0.0
30/07:30pm 28.0 27.7 20.3 63 5.1 N 22 32 12 17 1013.5 1013.5 0.0
30/07:00pm 28.3 27.5 20.1 61 5.4 N 24 33 13 18 1013.1 1013.1 0.0
30/06:30pm 28.5 26.8 20.5 62 5.3 N 30 43 16 23 1012.5 1012.5 0.0
30/06:00pm 28.9 27.5 20.4 60 5.6 N 28 37 15 20 1012.2 1012.2 0.0
30/05:30pm 29.1 28.3 20.0 58 6.0 N 24 37 13 20 1011.9 1011.9 0.0
30/05:00pm 29.8 29.0 19.2 53 6.9 N 22 32 12 17 1011.6 1011.6 0.0
30/04:30pm 30.6 28.6 18.3 47 7.9 N 26 32 14 17 1011.3 1011.3 0.0
30/04:00pm 32.3 30.8 17.7 41 9.4 N 22 30 12 16 1011.1 1011.1 0.0
30/03:30pm 32.8 30.8 17.4 39 9.8 NNE 24 32 13 17 1010.8 1010.8 0.0
30/03:00pm 33.4 31.7 17.1 37 10.4 NNW 22 30 12 16 1010.8 1010.8 0.0
30/02:30pm 34.5 33.2 16.8 34 11.3 N 19 28 10 15 1010.9 1010.9 0.0
30/02:00pm 33.5 31.9 15.9 34 11.0 N 19 28 10 15 1011.1 1011.1 0.0
30/01:30pm 34.0 32.6 15.5 33 11.6 N 17 30 9 16 1011.3 1011.3 0.0
30/01:00pm 34.5 32.5 15.4 32 11.9 NE 20 30 11 16 1011.8 1011.8 0.0
30/12:30pm 34.4 33.1 16.7 34 11.3 N 19 30 10 16 1012.4 1012.4 0.0
30/12:00pm 33.7 32.4 15.7 34 11.3 NNE 17 30 9 16 1012.9 1012.9 0.0
30/11:30am 33.1 31.3 15.6 35 10.9 NNE 19 28 10 15 1013.6 1013.6 0.0
30/11:00am 32.7 33.3 16.9 38 10.0 N 9 17 5 9 1014.2 1014.2 0.0
30/10:30am 32.1 32.3 16.8 40 9.7 N 11 22 6 12 1014.9 1014.9 0.0
30/10:00am 30.8 30.0 17.1 43 8.7 N 17 28 9 15 1015.3 1015.3 0.0
30/09:30am 31.7 31.2 16.0 38 9.8 N 13 24 7 13 1015.5 1015.5 0.0
30/09:00am 29.8 31.4 18.3 50 7.4 SW 7 13 4 7 1016.0 1016.0 0.0
30/08:30am 29.3 30.1 19.0 53 6.7 NNE 13 20 7 11 1015.8 1015.8 0.0
30/08:00am 28.4 29.9 18.8 56 6.2 ESE 9 15 5 8 1015.8 1015.8 0.0
30/07:30am 27.3 29.1 19.6 62 5.0 ESE 9 13 5 7 1015.6 1015.6 0.0
30/07:00am 25.7 25.9 19.3 67 4.1 SE 17 20 9 11 1015.7 1015.7 0.0
30/06:30am 23.7 24.3 18.6 73 3.2 E 13 15 7 8 1015.2 1015.2 0.0
30/06:00am 23.0 25.8 17.9 73 3.2 CALM 0 0 0 0 1014.9 1014.9 0.0
30/05:30am 23.3 25.1 17.5 70 3.6 NNE 4 7 2 4 1014.4 1014.4 0.0
30/05:00am 24.3 25.7 19.6 75 3.0 N 11 13 6 7 1013.9 1013.9 0.0
30/04:30am 23.4 25.0 18.3 73 3.2 NNE 7 9 4 5 1013.3 1013.3 0.0
30/04:00am 23.7 26.9 18.8 74 3.1 CALM 0 0 0 0 1013.1 1013.1 0.0
30/03:30am 23.2 24.9 18.1 73 3.2 N 6 7 3 4 1013.0 1013.0 0.0
30/03:00am 23.0 25.7 17.7 72 3.3 CALM 0 0 0 0 1012.7 1012.7 0.0
30/02:30am 24.2 27.2 18.4 70 3.7 CALM 0 0 0 0 1012.6 1012.6 0.0
30/02:00am 24.6 27.8 18.8 70 3.7 CALM 0 0 0 0 1012.6 1012.6 0.0
30/01:30am 24.6 26.1 18.1 67 4.1 WSW 7 9 4 5 1012.8 1012.8 0.0
30/01:00am 25.3 26.3 18.7 67 4.2 W 11 13 6 7 1012.8 1012.8 0.0
30/12:30am 25.1 26.0 18.5 67 4.2 W 11 13 6 7 1013.0 1013.0 0.0
30/12:00am 25.4 26.9 18.8 67 4.2 NW 9 11 5 6 1013.0 1013.0 0.0
 
Date/Time
WST
Temp
°C
App
Temp
°C
Dew
Point
°C
Rel
Hum
%
Delta-T
°C
Wind Press
QNH
hPa
Press
MSL
hPa
Rain since
9am
mm
Dir  Spd
km/h
Gust
km/h
Spd
kts
Gust
kts
29/11:30pm 25.9 27.1 18.3 63 4.8 WNW 9 13 5 7 1013.2 1013.2 0.0
29/11:00pm 26.6 27.4 19.0 63 4.9 NW 13 15 7 8 1013.3 1013.3 0.0
29/10:30pm 27.1 28.1 19.4 62 5.0 WNW 13 15 7 8 1013.3 1013.3 0.0
29/10:00pm 27.3 29.3 19.9 64 4.8 NW 9 15 5 8 1013.3 1013.3 0.0
29/09:30pm 27.2 29.7 20.3 66 4.5 N 7 11 4 6 1013.2 1013.2 0.0
29/09:00pm 27.3 28.4 20.4 66 4.5 N 15 19 8 10 1013.1 1013.1 0.0
29/08:30pm 27.4 29.0 20.7 67 4.4 N 13 17 7 9 1013.1 1013.1 0.0
29/08:00pm 27.3 29.7 20.9 68 4.2 NNW 9 13 5 7 1013.1 1013.1 0.0
29/07:30pm 27.3 30.3 20.9 68 4.2 N 6 20 3 11 1012.7 1012.7 0.0
29/07:00pm 27.3 28.3 21.1 69 4.1 N 17 30 9 16 1012.4 1012.4 0.0
29/06:30pm 27.4 26.5 20.7 67 4.4 N 26 37 14 20 1011.9 1011.9 0.0
29/06:00pm 27.4 24.9 19.7 63 5.0 N 32 41 17 22 1011.4 1011.4 0.0
29/05:30pm 27.8 25.6 19.6 61 5.3 N 30 46 16 25 1010.7 1010.7 0.0
29/05:00pm 28.7 26.1 19.6 58 5.9 N 32 44 17 24 1010.3 1010.3 0.0
29/04:30pm 29.7 26.9 18.2 50 7.4 N 30 44 16 24 1010.2 1010.2 0.0
29/04:00pm 31.0 29.0 20.0 52 7.3 N 30 43 16 23 1009.8 1009.8 0.0
29/03:30pm 32.2 28.9 18.0 42 9.1 N 32 39 17 21 1009.6 1009.6 0.0
29/03:00pm 32.3 28.8 17.4 41 9.5 N 32 44 17 24 1009.4 1009.4 0.0
29/02:30pm 33.6 29.3 13.1 29 12.3 N 28 39 15 21 1009.4 1009.4 0.0
29/02:00pm 34.2 30.0 13.6 29 12.5 NNE 28 41 15 22 1009.4 1009.4 0.0

Other Formats:

Comma delimited format used in spreadsheet applications
http://www.bom.gov.au/fwo/IDW60801/IDW60801.95214.axf

JavaScript Object Notation format (JSON) in row-major order
http://www.bom.gov.au/fwo/IDW60801/IDW60801.95214.json